sensor_id;sensor_type;location;lat;lon;timestamp;pressure;altitude;pressure_sealevel;temperature;humidity
6208;BME280;3137;51.550;7.060;2022-12-22T00:01:13;100193.03;;;8.64;91.37
6208;BME280;3137;51.550;7.060;2022-12-22T00:03:58;100183.84;;;8.68;91.40
6208;BME280;3137;51.550;7.060;2022-12-22T00:06:43;100173.16;;;8.68;91.49
6208;BME280;3137;51.550;7.060;2022-12-22T00:09:28;100171.47;;;8.67;91.54
6208;BME280;3137;51.550;7.060;2022-12-22T00:12:15;100167.31;;;8.63;91.60
6208;BME280;3137;51.550;7.060;2022-12-22T00:15:02;100154.81;;;8.64;91.13
6208;BME280;3137;51.550;7.060;2022-12-22T00:17:48;100155.53;;;8.66;91.47
6208;BME280;3137;51.550;7.060;2022-12-22T00:20:33;100134.13;;;8.55;91.18
6208;BME280;3137;51.550;7.060;2022-12-22T00:23:18;100138.59;;;8.54;91.71
6208;BME280;3137;51.550;7.060;2022-12-22T00:26:03;100140.84;;;8.60;91.71
6208;BME280;3137;51.550;7.060;2022-12-22T00:28:48;100129.66;;;8.55;91.61
6208;BME280;3137;51.550;7.060;2022-12-22T00:31:33;100130.00;;;8.50;91.54
6208;BME280;3137;51.550;7.060;2022-12-22T00:34:19;100128.78;;;8.55;91.40
6208;BME280;3137;51.550;7.060;2022-12-22T00:37:10;100132.53;;;8.52;91.27
6208;BME280;3137;51.550;7.060;2022-12-22T00:39:55;100125.50;;;8.51;91.62
6208;BME280;3137;51.550;7.060;2022-12-22T00:42:40;100132.75;;;8.49;91.06
6208;BME280;3137;51.550;7.060;2022-12-22T00:45:25;100124.00;;;8.47;91.46
6208;BME280;3137;51.550;7.060;2022-12-22T00:48:20;100124.13;;;8.45;91.69
6208;BME280;3137;51.550;7.060;2022-12-22T00:51:06;100111.88;;;8.43;91.38
6208;BME280;3137;51.550;7.060;2022-12-22T00:53:51;100114.84;;;8.38;91.32
6208;BME280;3137;51.550;7.060;2022-12-22T00:56:36;100109.41;;;8.40;91.97
6208;BME280;3137;51.550;7.060;2022-12-22T00:59:20;100100.13;;;8.45;91.71
6208;BME280;3137;51.550;7.060;2022-12-22T01:02:05;100099.38;;;8.43;91.80
6208;BME280;3137;51.550;7.060;2022-12-22T01:04:51;100101.81;;;8.46;91.49
6208;BME280;3137;51.550;7.060;2022-12-22T01:07:36;100098.28;;;8.46;91.22
6208;BME280;3137;51.550;7.060;2022-12-22T01:10:21;100090.41;;;8.44;91.78
6208;BME280;3137;51.550;7.060;2022-12-22T01:13:10;100091.56;;;8.40;92.08
6208;BME280;3137;51.550;7.060;2022-12-22T01:15:55;100087.13;;;8.41;92.15
6208;BME280;3137;51.550;7.060;2022-12-22T01:18:40;100080.81;;;8.42;91.84
6208;BME280;3137;51.550;7.060;2022-12-22T01:21:25;100080.47;;;8.46;91.61
6208;BME280;3137;51.550;7.060;2022-12-22T01:24:14;100061.28;;;8.41;92.35
6208;BME280;3137;51.550;7.060;2022-12-22T01:27:00;100055.47;;;8.47;92.52
6208;BME280;3137;51.550;7.060;2022-12-22T01:29:45;100052.94;;;8.46;92.02
6208;BME280;3137;51.550;7.060;2022-12-22T01:32:30;100051.34;;;8.43;91.90
6208;BME280;3137;51.550;7.060;2022-12-22T01:35:20;100050.59;;;8.41;91.96
6208;BME280;3137;51.550;7.060;2022-12-22T01:38:05;100042.50;;;8.43;92.40
6208;BME280;3137;51.550;7.060;2022-12-22T01:40:51;100041.53;;;8.44;92.48
6208;BME280;3137;51.550;7.060;2022-12-22T01:43:36;100038.09;;;8.42;92.88
6208;BME280;3137;51.550;7.060;2022-12-22T01:46:28;100026.13;;;8.47;92.75
6208;BME280;3137;51.550;7.060;2022-12-22T01:49:36;100029.44;;;8.51;92.33
6208;BME280;3137;51.550;7.060;2022-12-22T01:52:25;100024.81;;;8.53;92.37
6208;BME280;3137;51.550;7.060;2022-12-22T01:55:15;100022.66;;;8.58;91.95
6208;BME280;3137;51.550;7.060;2022-12-22T01:58:01;100026.19;;;8.59;92.01
6208;BME280;3137;51.550;7.060;2022-12-22T02:00:46;100021.69;;;8.59;92.43
6208;BME280;3137;51.550;7.060;2022-12-22T02:03:31;100015.50;;;8.59;92.26
6208;BME280;3137;51.550;7.060;2022-12-22T02:06:28;100007.63;;;8.57;92.08
6208;BME280;3137;51.550;7.060;2022-12-22T02:12:34;100001.41;;;8.57;92.23
6208;BME280;3137;51.550;7.060;2022-12-22T02:15:31;99992.31;;;8.59;92.30
6208;BME280;3137;51.550;7.060;2022-12-22T02:18:31;99981.78;;;8.58;92.15
6208;BME280;3137;51.550;7.060;2022-12-22T02:21:21;99979.63;;;8.63;92.27
6208;BME280;3137;51.550;7.060;2022-12-22T02:27:06;99973.78;;;8.58;92.71
6208;BME280;3137;51.550;7.060;2022-12-22T02:29:57;99963.84;;;8.60;92.49
6208;BME280;3137;51.550;7.060;2022-12-22T02:32:44;99959.69;;;8.56;92.56
6208;BME280;3137;51.550;7.060;2022-12-22T02:36:00;99957.75;;;8.58;93.00
6208;BME280;3137;51.550;7.060;2022-12-22T02:38:48;99946.75;;;8.62;92.70
6208;BME280;3137;51.550;7.060;2022-12-22T02:44:46;99931.81;;;8.60;92.87
6208;BME280;3137;51.550;7.060;2022-12-22T02:48:03;99923.81;;;8.60;92.89
6208;BME280;3137;51.550;7.060;2022-12-22T02:51:04;99916.66;;;8.60;93.29
6208;BME280;3137;51.550;7.060;2022-12-22T02:53:52;99921.75;;;8.63;92.96
6208;BME280;3137;51.550;7.060;2022-12-22T02:56:38;99918.97;;;8.65;92.91
6208;BME280;3137;51.550;7.060;2022-12-22T02:59:24;99915.44;;;8.64;93.15
6208;BME280;3137;51.550;7.060;2022-12-22T03:02:09;99920.25;;;8.59;93.56
6208;BME280;3137;51.550;7.060;2022-12-22T03:04:54;99919.31;;;8.60;93.75
6208;BME280;3137;51.550;7.060;2022-12-22T03:07:39;99921.00;;;8.61;93.59
6208;BME280;3137;51.550;7.060;2022-12-22T03:10:31;99911.91;;;8.64;93.64
6208;BME280;3137;51.550;7.060;2022-12-22T03:13:16;99917.03;;;8.67;93.60
6208;BME280;3137;51.550;7.060;2022-12-22T03:16:01;99906.47;;;8.65;93.73
6208;BME280;3137;51.550;7.060;2022-12-22T03:18:45;99901.22;;;8.64;93.68
6208;BME280;3137;51.550;7.060;2022-12-22T03:21:30;99887.66;;;8.67;93.68
6208;BME280;3137;51.550;7.060;2022-12-22T03:24:15;99894.69;;;8.68;93.65
6208;BME280;3137;51.550;7.060;2022-12-22T03:27:00;99888.25;;;8.70;93.48
6208;BME280;3137;51.550;7.060;2022-12-22T03:29:27;99882.81;;;8.72;93.36
6208;BME280;3137;51.550;7.060;2022-12-22T03:31:53;99878.44;;;8.71;93.96
6208;BME280;3137;51.550;7.060;2022-12-22T03:34:20;99872.97;;;8.72;93.56
6208;BME280;3137;51.550;7.060;2022-12-22T03:36:46;99865.97;;;8.71;93.68
6208;BME280;3137;51.550;7.060;2022-12-22T03:39:12;99863.63;;;8.78;93.32
6208;BME280;3137;51.550;7.060;2022-12-22T03:41:39;99860.00;;;8.79;93.31
6208;BME280;3137;51.550;7.060;2022-12-22T03:44:37;99856.09;;;8.83;93.10
6208;BME280;3137;51.550;7.060;2022-12-22T03:47:22;99854.06;;;8.87;92.70
6208;BME280;3137;51.550;7.060;2022-12-22T03:49:48;99856.84;;;8.85;93.12
6208;BME280;3137;51.550;7.060;2022-12-22T03:52:14;99849.56;;;8.87;92.94
6208;BME280;3137;51.550;7.060;2022-12-22T03:54:41;99846.91;;;8.87;92.84
6208;BME280;3137;51.550;7.060;2022-12-22T03:57:07;99842.53;;;8.86;92.81
6208;BME280;3137;51.550;7.060;2022-12-22T03:59:34;99839.97;;;8.85;93.42
6208;BME280;3137;51.550;7.060;2022-12-22T04:02:00;99830.28;;;8.84;93.07
6208;BME280;3137;51.550;7.060;2022-12-22T04:04:27;99827.00;;;8.80;92.95
6208;BME280;3137;51.550;7.060;2022-12-22T04:06:53;99834.63;;;8.85;93.14
6208;BME280;3137;51.550;7.060;2022-12-22T04:09:19;99829.41;;;8.83;93.02
6208;BME280;3137;51.550;7.060;2022-12-22T04:11:47;99832.81;;;8.85;93.19
6208;BME280;3137;51.550;7.060;2022-12-22T04:14:32;99832.69;;;8.87;92.94
6208;BME280;3137;51.550;7.060;2022-12-22T04:17:04;99826.84;;;8.93;93.30
6208;BME280;3137;51.550;7.060;2022-12-22T04:19:31;99825.28;;;8.90;92.83
6208;BME280;3137;51.550;7.060;2022-12-22T04:21:58;99819.94;;;8.90;92.94
6208;BME280;3137;51.550;7.060;2022-12-22T04:24:24;99816.56;;;8.88;93.17
6208;BME280;3137;51.550;7.060;2022-12-22T04:26:51;99812.19;;;8.87;92.85
6208;BME280;3137;51.550;7.060;2022-12-22T04:29:17;99820.19;;;8.87;93.10
6208;BME280;3137;51.550;7.060;2022-12-22T04:31:44;99815.94;;;8.85;93.12
6208;BME280;3137;51.550;7.060;2022-12-22T04:34:10;99822.97;;;8.86;93.13
6208;BME280;3137;51.550;7.060;2022-12-22T04:36:37;99816.78;;;8.85;93.36
6208;BME280;3137;51.550;7.060;2022-12-22T04:39:03;99810.50;;;8.86;92.88
6208;BME280;3137;51.550;7.060;2022-12-22T04:41:29;99806.38;;;8.82;92.67
6208;BME280;3137;51.550;7.060;2022-12-22T04:43:56;99805.38;;;8.83;92.94
6208;BME280;3137;51.550;7.060;2022-12-22T04:46:22;99813.28;;;8.85;92.91
6208;BME280;3137;51.550;7.060;2022-12-22T04:48:49;99800.78;;;8.85;93.25
6208;BME280;3137;51.550;7.060;2022-12-22T04:51:23;99805.16;;;8.86;93.33
6208;BME280;3137;51.550;7.060;2022-12-22T04:53:49;99806.84;;;8.87;93.07
6208;BME280;3137;51.550;7.060;2022-12-22T04:56:15;99801.41;;;8.89;92.98
6208;BME280;3137;51.550;7.060;2022-12-22T04:58:42;99805.16;;;8.86;93.35
6208;BME280;3137;51.550;7.060;2022-12-22T05:01:13;99798.00;;;8.87;92.80
6208;BME280;3137;51.550;7.060;2022-12-22T05:03:40;99797.63;;;8.91;93.13
6208;BME280;3137;51.550;7.060;2022-12-22T05:06:07;99788.03;;;8.89;92.92
6208;BME280;3137;51.550;7.060;2022-12-22T05:08:33;99789.88;;;8.88;93.02
6208;BME280;3137;51.550;7.060;2022-12-22T05:11:00;99785.13;;;8.92;92.80
6208;BME280;3137;51.550;7.060;2022-12-22T05:13:29;99788.88;;;8.89;93.31
6208;BME280;3137;51.550;7.060;2022-12-22T05:16:05;99788.78;;;8.91;93.19
6208;BME280;3137;51.550;7.060;2022-12-22T05:18:33;99787.31;;;8.87;93.07
6208;BME280;3137;51.550;7.060;2022-12-22T05:21:20;99780.97;;;8.88;92.90
6208;BME280;3137;51.550;7.060;2022-12-22T05:23:48;99784.63;;;8.87;92.89
6208;BME280;3137;51.550;7.060;2022-12-22T05:26:15;99780.16;;;8.87;92.94
6208;BME280;3137;51.550;7.060;2022-12-22T05:28:43;99778.78;;;8.93;93.11
6208;BME280;3137;51.550;7.060;2022-12-22T05:31:17;99767.16;;;8.94;93.46
6208;BME280;3137;51.550;7.060;2022-12-22T05:33:44;99775.06;;;8.96;93.16
6208;BME280;3137;51.550;7.060;2022-12-22T05:36:11;99772.25;;;8.97;93.34
6208;BME280;3137;51.550;7.060;2022-12-22T05:38:38;99775.91;;;8.96;92.92
6208;BME280;3137;51.550;7.060;2022-12-22T05:41:06;99775.63;;;8.99;92.82
6208;BME280;3137;51.550;7.060;2022-12-22T05:43:33;99774.44;;;8.92;93.31
6208;BME280;3137;51.550;7.060;2022-12-22T05:46:01;99772.97;;;8.99;92.95
6208;BME280;3137;51.550;7.060;2022-12-22T05:48:28;99783.91;;;8.96;92.96
6208;BME280;3137;51.550;7.060;2022-12-22T05:51:03;99785.75;;;8.96;93.40
6208;BME280;3137;51.550;7.060;2022-12-22T05:53:29;99790.09;;;8.97;93.19
6208;BME280;3137;51.550;7.060;2022-12-22T05:55:55;99787.41;;;8.97;93.33
6208;BME280;3137;51.550;7.060;2022-12-22T05:58:23;99784.63;;;8.98;93.42
6208;BME280;3137;51.550;7.060;2022-12-22T06:00:49;99789.72;;;9.01;93.17
6208;BME280;3137;51.550;7.060;2022-12-22T06:03:15;99783.75;;;9.09;92.87
6208;BME280;3137;51.550;7.060;2022-12-22T06:05:42;99788.16;;;9.10;92.75
6208;BME280;3137;51.550;7.060;2022-12-22T06:08:08;99789.34;;;9.17;92.58
6208;BME280;3137;51.550;7.060;2022-12-22T06:10:35;99778.16;;;9.12;92.96
6208;BME280;3137;51.550;7.060;2022-12-22T06:13:01;99784.00;;;9.06;93.40
6208;BME280;3137;51.550;7.060;2022-12-22T06:15:27;99783.88;;;9.07;92.92
6208;BME280;3137;51.550;7.060;2022-12-22T06:17:54;99777.09;;;9.03;93.53
6208;BME280;3137;51.550;7.060;2022-12-22T06:20:20;99784.59;;;9.09;93.01
6208;BME280;3137;51.550;7.060;2022-12-22T06:22:46;99780.25;;;9.08;93.35
6208;BME280;3137;51.550;7.060;2022-12-22T06:25:13;99782.91;;;9.08;93.39
6208;BME280;3137;51.550;7.060;2022-12-22T06:27:45;99781.09;;;9.09;93.48
6208;BME280;3137;51.550;7.060;2022-12-22T06:30:12;99787.41;;;9.08;93.17
6208;BME280;3137;51.550;7.060;2022-12-22T06:32:39;99779.50;;;9.06;93.31
6208;BME280;3137;51.550;7.060;2022-12-22T06:35:06;99796.38;;;9.07;93.09
6208;BME280;3137;51.550;7.060;2022-12-22T06:37:33;99795.44;;;9.08;93.62
6208;BME280;3137;51.550;7.060;2022-12-22T06:39:59;99797.38;;;9.06;93.63
6208;BME280;3137;51.550;7.060;2022-12-22T06:42:25;99794.31;;;9.10;93.43
6208;BME280;3137;51.550;7.060;2022-12-22T06:45:11;99809.09;;;9.14;92.95
6208;BME280;3137;51.550;7.060;2022-12-22T06:47:37;99805.75;;;9.12;92.98
6208;BME280;3137;51.550;7.060;2022-12-22T06:50:04;99804.28;;;9.20;93.24
6208;BME280;3137;51.550;7.060;2022-12-22T06:52:31;99806.81;;;9.21;93.07
6208;BME280;3137;51.550;7.060;2022-12-22T06:54:57;99810.81;;;9.27;92.99
6208;BME280;3137;51.550;7.060;2022-12-22T06:57:23;99809.09;;;9.26;93.08
6208;BME280;3137;51.550;7.060;2022-12-22T06:59:50;99811.91;;;9.24;93.02
6208;BME280;3137;51.550;7.060;2022-12-22T07:02:22;99820.16;;;9.21;93.31
6208;BME280;3137;51.550;7.060;2022-12-22T07:04:49;99828.31;;;9.20;93.27
6208;BME280;3137;51.550;7.060;2022-12-22T07:07:15;99834.50;;;9.20;93.51
6208;BME280;3137;51.550;7.060;2022-12-22T07:09:42;99837.66;;;9.25;93.14
6208;BME280;3137;51.550;7.060;2022-12-22T07:12:08;99842.16;;;9.25;92.88
6208;BME280;3137;51.550;7.060;2022-12-22T07:14:34;99844.69;;;9.26;92.99
6208;BME280;3137;51.550;7.060;2022-12-22T07:17:01;99843.25;;;9.22;93.12
6208;BME280;3137;51.550;7.060;2022-12-22T07:19:27;99845.91;;;9.22;93.53
6208;BME280;3137;51.550;7.060;2022-12-22T07:21:54;99856.72;;;9.21;93.29
6208;BME280;3137;51.550;7.060;2022-12-22T07:24:20;99862.78;;;9.23;93.16
6208;BME280;3137;51.550;7.060;2022-12-22T07:26:51;99872.00;;;9.19;93.30
6208;BME280;3137;51.550;7.060;2022-12-22T07:29:17;99879.53;;;9.13;93.08
6208;BME280;3137;51.550;7.060;2022-12-22T07:31:44;99889.75;;;9.20;93.17
6208;BME280;3137;51.550;7.060;2022-12-22T07:34:11;99900.44;;;9.20;92.92
6208;BME280;3137;51.550;7.060;2022-12-22T07:36:37;99897.78;;;9.20;93.11
6208;BME280;3137;51.550;7.060;2022-12-22T07:39:03;99896.31;;;9.15;93.28
6208;BME280;3137;51.550;7.060;2022-12-22T07:41:30;99905.53;;;9.11;93.51
6208;BME280;3137;51.550;7.060;2022-12-22T07:44:15;99906.00;;;9.16;93.20
6208;BME280;3137;51.550;7.060;2022-12-22T07:46:41;99908.09;;;9.13;93.53
6208;BME280;3137;51.550;7.060;2022-12-22T07:49:09;99912.59;;;9.12;93.62
6208;BME280;3137;51.550;7.060;2022-12-22T07:51:57;99924.13;;;9.13;93.54
6208;BME280;3137;51.550;7.060;2022-12-22T07:54:25;99924.13;;;9.13;93.79
6208;BME280;3137;51.550;7.060;2022-12-22T07:56:52;99929.47;;;9.13;93.66
6208;BME280;3137;51.550;7.060;2022-12-22T07:59:18;99932.97;;;9.13;93.29
6208;BME280;3137;51.550;7.060;2022-12-22T08:01:45;99938.44;;;9.12;93.13
6208;BME280;3137;51.550;7.060;2022-12-22T08:04:13;99941.00;;;9.13;93.35
6208;BME280;3137;51.550;7.060;2022-12-22T08:06:40;99941.84;;;9.14;93.50
6208;BME280;3137;51.550;7.060;2022-12-22T08:09:07;99934.19;;;9.09;93.68
6208;BME280;3137;51.550;7.060;2022-12-22T08:11:34;99936.75;;;9.11;93.36
6208;BME280;3137;51.550;7.060;2022-12-22T08:14:00;99942.44;;;9.06;93.46
6208;BME280;3137;51.550;7.060;2022-12-22T08:16:27;99949.59;;;9.06;93.73
6208;BME280;3137;51.550;7.060;2022-12-22T08:18:54;99952.63;;;9.01;93.83
6208;BME280;3137;51.550;7.060;2022-12-22T08:21:20;99958.56;;;9.05;93.75
6208;BME280;3137;51.550;7.060;2022-12-22T08:23:47;99956.16;;;9.02;94.01
6208;BME280;3137;51.550;7.060;2022-12-22T08:26:19;99961.25;;;9.05;93.61
6208;BME280;3137;51.550;7.060;2022-12-22T08:28:49;99968.41;;;9.04;93.76
6208;BME280;3137;51.550;7.060;2022-12-22T08:31:19;99984.69;;;9.01;93.84
6208;BME280;3137;51.550;7.060;2022-12-22T08:33:47;99985.41;;;9.03;93.81
6208;BME280;3137;51.550;7.060;2022-12-22T08:36:13;99999.22;;;8.97;93.86
6208;BME280;3137;51.550;7.060;2022-12-22T08:38:41;100002.41;;;9.02;93.99
6208;BME280;3137;51.550;7.060;2022-12-22T08:41:13;100000.09;;;8.98;93.57
6208;BME280;3137;51.550;7.060;2022-12-22T08:43:40;99997.41;;;8.98;93.93
6208;BME280;3137;51.550;7.060;2022-12-22T08:46:06;100007.38;;;8.96;93.59
6208;BME280;3137;51.550;7.060;2022-12-22T08:48:33;100017.09;;;8.97;93.99
6208;BME280;3137;51.550;7.060;2022-12-22T08:50:59;100024.84;;;9.00;93.79
6208;BME280;3137;51.550;7.060;2022-12-22T08:53:25;100038.34;;;8.98;93.68
6208;BME280;3137;51.550;7.060;2022-12-22T08:56:12;100031.19;;;8.99;93.88
6208;BME280;3137;51.550;7.060;2022-12-22T08:58:38;100042.81;;;8.98;93.70
6208;BME280;3137;51.550;7.060;2022-12-22T09:01:05;100032.13;;;8.98;93.68
6208;BME280;3137;51.550;7.060;2022-12-22T09:03:32;100036.91;;;9.05;93.61
6208;BME280;3137;51.550;7.060;2022-12-22T09:05:59;100040.53;;;9.04;93.32
6208;BME280;3137;51.550;7.060;2022-12-22T09:08:26;100044.03;;;9.05;93.23
6208;BME280;3137;51.550;7.060;2022-12-22T09:10:52;100041.25;;;9.06;93.43
6208;BME280;3137;51.550;7.060;2022-12-22T09:13:19;100043.94;;;9.06;93.60
6208;BME280;3137;51.550;7.060;2022-12-22T09:15:45;100043.47;;;9.12;93.23
6208;BME280;3137;51.550;7.060;2022-12-22T09:18:11;100060.34;;;9.13;93.11
6208;BME280;3137;51.550;7.060;2022-12-22T09:20:38;100051.09;;;9.06;93.32
6208;BME280;3137;51.550;7.060;2022-12-22T09:23:04;100058.78;;;9.10;93.58
6208;BME280;3137;51.550;7.060;2022-12-22T09:25:33;100043.59;;;9.11;93.48
6208;BME280;3137;51.550;7.060;2022-12-22T09:27:59;100042.75;;;9.22;93.45
6208;BME280;3137;51.550;7.060;2022-12-22T09:30:26;100052.13;;;9.27;93.14
6208;BME280;3137;51.550;7.060;2022-12-22T09:32:55;100064.50;;;9.28;93.25
6208;BME280;3137;51.550;7.060;2022-12-22T09:35:21;100075.19;;;9.28;92.83
6208;BME280;3137;51.550;7.060;2022-12-22T09:37:48;100087.97;;;9.36;92.78
6208;BME280;3137;51.550;7.060;2022-12-22T09:40:14;100094.53;;;9.32;93.02
6208;BME280;3137;51.550;7.060;2022-12-22T09:42:41;100102.75;;;9.29;92.60
6208;BME280;3137;51.550;7.060;2022-12-22T09:45:12;100116.59;;;9.23;92.68
6208;BME280;3137;51.550;7.060;2022-12-22T09:47:49;100115.13;;;9.19;92.66
6208;BME280;3137;51.550;7.060;2022-12-22T09:50:20;100126.28;;;9.12;92.54
6208;BME280;3137;51.550;7.060;2022-12-22T09:52:51;100124.06;;;9.06;92.38
6208;BME280;3137;51.550;7.060;2022-12-22T09:57:50;100137.03;;;9.00;92.62
6208;BME280;3137;51.550;7.060;2022-12-22T10:00:18;100138.25;;;8.96;92.52
6208;BME280;3137;51.550;7.060;2022-12-22T10:03:18;100138.09;;;8.97;92.32
6208;BME280;3137;51.550;7.060;2022-12-22T10:06:09;100154.47;;;8.92;92.42
6208;BME280;3137;51.550;7.060;2022-12-22T10:08:38;100163.22;;;8.94;92.42
6208;BME280;3137;51.550;7.060;2022-12-22T10:11:07;100163.47;;;8.91;92.30
6208;BME280;3137;51.550;7.060;2022-12-22T10:13:37;100167.97;;;8.91;92.90
6208;BME280;3137;51.550;7.060;2022-12-22T10:16:26;100166.47;;;8.87;92.05
6208;BME280;3137;51.550;7.060;2022-12-22T10:19:13;100175.09;;;8.90;92.40
6208;BME280;3137;51.550;7.060;2022-12-22T10:21:41;100172.66;;;8.87;92.36
6208;BME280;3137;51.550;7.060;2022-12-22T10:24:28;100176.19;;;8.88;92.11
6208;BME280;3137;51.550;7.060;2022-12-22T10:26:58;100174.47;;;8.87;92.48
6208;BME280;3137;51.550;7.060;2022-12-22T10:29:26;100187.09;;;8.85;92.87
6208;BME280;3137;51.550;7.060;2022-12-22T10:32:00;100187.94;;;8.85;91.93
6208;BME280;3137;51.550;7.060;2022-12-22T10:34:28;100188.91;;;8.84;92.08
6208;BME280;3137;51.550;7.060;2022-12-22T10:36:58;100189.34;;;8.78;92.25
6208;BME280;3137;51.550;7.060;2022-12-22T10:39:28;100186.81;;;8.77;92.32
6208;BME280;3137;51.550;7.060;2022-12-22T10:41:59;100198.09;;;8.80;91.77
6208;BME280;3137;51.550;7.060;2022-12-22T10:44:31;100192.88;;;8.79;91.41
6208;BME280;3137;51.550;7.060;2022-12-22T10:47:16;100199.41;;;8.75;90.77
6208;BME280;3137;51.550;7.060;2022-12-22T10:49:49;100199.28;;;8.76;90.57
6208;BME280;3137;51.550;7.060;2022-12-22T10:52:20;100188.59;;;8.76;90.67
6208;BME280;3137;51.550;7.060;2022-12-22T10:57:41;100203.28;;;8.94;91.16
6208;BME280;3137;51.550;7.060;2022-12-22T11:00:26;100205.34;;;8.91;89.79
6208;BME280;3137;51.550;7.060;2022-12-22T11:02:56;100211.75;;;8.88;90.42
6208;BME280;3137;51.550;7.060;2022-12-22T11:05:23;100223.06;;;8.92;90.28
6208;BME280;3137;51.550;7.060;2022-12-22T11:07:50;100219.63;;;9.03;90.23
6208;BME280;3137;51.550;7.060;2022-12-22T11:10:23;100221.22;;;9.05;89.24
6208;BME280;3137;51.550;7.060;2022-12-22T11:12:54;100232.00;;;9.04;88.57
6208;BME280;3137;51.550;7.060;2022-12-22T11:15:30;100239.44;;;9.11;88.34
6208;BME280;3137;51.550;7.060;2022-12-22T11:23:27;100242.94;;;9.12;86.05
6208;BME280;3137;51.550;7.060;2022-12-22T11:37:27;100268.81;;;9.11;84.49
6208;BME280;3137;51.550;7.060;2022-12-22T11:40:07;100275.06;;;8.99;85.15
6208;BME280;3137;51.550;7.060;2022-12-22T11:42:52;100268.47;;;8.92;85.04
6208;BME280;3137;51.550;7.060;2022-12-22T11:48:34;100285.56;;;8.89;85.75
6208;BME280;3137;51.550;7.060;2022-12-22T11:59:56;100282.69;;;8.80;83.53
6208;BME280;3137;51.550;7.060;2022-12-22T12:07:53;100277.31;;;8.92;83.29
6208;BME280;3137;51.550;7.060;2022-12-22T12:10:28;100291.88;;;8.88;82.38
6208;BME280;3137;51.550;7.060;2022-12-22T12:16:32;100288.00;;;8.92;82.16
6208;BME280;3137;51.550;7.060;2022-12-22T12:21:58;100287.56;;;8.99;83.17
6208;BME280;3137;51.550;7.060;2022-12-22T12:24:57;100296.38;;;9.12;83.01
6208;BME280;3137;51.550;7.060;2022-12-22T12:27:42;100304.53;;;9.10;82.57
6208;BME280;3137;51.550;7.060;2022-12-22T12:30:16;100302.94;;;9.08;81.57
6208;BME280;3137;51.550;7.060;2022-12-22T12:33:12;100309.88;;;8.98;81.00
6208;BME280;3137;51.550;7.060;2022-12-22T12:35:49;100319.94;;;8.94;81.90
6208;BME280;3137;51.550;7.060;2022-12-22T12:38:23;100311.47;;;9.00;81.47
6208;BME280;3137;51.550;7.060;2022-12-22T12:43:49;100308.91;;;9.11;82.17
6208;BME280;3137;51.550;7.060;2022-12-22T12:52:01;100307.16;;;9.23;80.97
6208;BME280;3137;51.550;7.060;2022-12-22T12:56:58;100308.97;;;9.23;79.61
6208;BME280;3137;51.550;7.060;2022-12-22T13:08:12;100290.84;;;9.39;77.83
6208;BME280;3137;51.550;7.060;2022-12-22T13:10:45;100286.78;;;9.33;77.83
6208;BME280;3137;51.550;7.060;2022-12-22T13:21:07;100294.03;;;9.44;78.65
6208;BME280;3137;51.550;7.060;2022-12-22T13:26:41;100288.94;;;9.41;79.43
6208;BME280;3137;51.550;7.060;2022-12-22T13:29:18;100290.38;;;9.45;79.89
6208;BME280;3137;51.550;7.060;2022-12-22T13:31:59;100283.09;;;9.47;79.93
6208;BME280;3137;51.550;7.060;2022-12-22T13:37:26;100298.88;;;9.39;77.36
6208;BME280;3137;51.550;7.060;2022-12-22T13:42:35;100307.63;;;9.17;78.73
6208;BME280;3137;51.550;7.060;2022-12-22T13:45:04;100313.56;;;9.21;79.24
6208;BME280;3137;51.550;7.060;2022-12-22T13:47:31;100304.25;;;9.26;77.89
6208;BME280;3137;51.550;7.060;2022-12-22T13:49:58;100300.63;;;9.27;78.45
6208;BME280;3137;51.550;7.060;2022-12-22T13:52:35;100303.63;;;9.23;78.41
6208;BME280;3137;51.550;7.060;2022-12-22T13:55:01;100307.06;;;9.25;79.01
6208;BME280;3137;51.550;7.060;2022-12-22T13:57:28;100311.75;;;9.21;77.58
6208;BME280;3137;51.550;7.060;2022-12-22T13:59:54;100307.53;;;9.06;78.77
6208;BME280;3137;51.550;7.060;2022-12-22T14:02:21;100316.09;;;8.98;78.79
6208;BME280;3137;51.550;7.060;2022-12-22T14:05:09;100320.03;;;8.92;79.88
6208;BME280;3137;51.550;7.060;2022-12-22T14:07:36;100325.38;;;8.92;79.38
6208;BME280;3137;51.550;7.060;2022-12-22T14:10:02;100323.78;;;8.90;79.21
6208;BME280;3137;51.550;7.060;2022-12-22T14:12:31;100330.72;;;8.92;80.01
6208;BME280;3137;51.550;7.060;2022-12-22T14:15:02;100326.59;;;8.88;80.07
6208;BME280;3137;51.550;7.060;2022-12-22T14:17:38;100326.25;;;8.93;79.83
6208;BME280;3137;51.550;7.060;2022-12-22T14:20:27;100315.69;;;8.91;80.35
6208;BME280;3137;51.550;7.060;2022-12-22T14:23:02;100319.19;;;8.92;80.59
6208;BME280;3137;51.550;7.060;2022-12-22T14:25:33;100324.13;;;8.85;80.56
6208;BME280;3137;51.550;7.060;2022-12-22T14:28:04;100326.69;;;8.87;79.55
6208;BME280;3137;51.550;7.060;2022-12-22T14:30:35;100342.72;;;8.87;78.85
6208;BME280;3137;51.550;7.060;2022-12-22T14:36:15;100344.72;;;8.96;77.86
6208;BME280;3137;51.550;7.060;2022-12-22T14:38:45;100333.31;;;8.94;78.50
6208;BME280;3137;51.550;7.060;2022-12-22T14:41:34;100327.22;;;8.92;77.88
6208;BME280;3137;51.550;7.060;2022-12-22T14:49:56;100336.06;;;8.92;79.08
6208;BME280;3137;51.550;7.060;2022-12-22T14:55:05;100326.78;;;8.98;79.03
6208;BME280;3137;51.550;7.060;2022-12-22T14:57:37;100332.75;;;9.02;78.11
6208;BME280;3137;51.550;7.060;2022-12-22T15:02:50;100319.94;;;8.94;78.57
6208;BME280;3137;51.550;7.060;2022-12-22T15:05:34;100310.56;;;8.88;79.31
6208;BME280;3137;51.550;7.060;2022-12-22T15:08:38;100305.56;;;8.84;79.50
6208;BME280;3137;51.550;7.060;2022-12-22T15:11:19;100294.22;;;8.80;79.91
6208;BME280;3137;51.550;7.060;2022-12-22T15:13:50;100295.06;;;8.81;80.06
6208;BME280;3137;51.550;7.060;2022-12-22T15:16:18;100296.47;;;8.73;80.56
6208;BME280;3137;51.550;7.060;2022-12-22T15:18:46;100285.41;;;8.67;80.73
6208;BME280;3137;51.550;7.060;2022-12-22T15:21:14;100286.25;;;8.67;80.60
6208;BME280;3137;51.550;7.060;2022-12-22T15:23:42;100284.75;;;8.63;80.88
6208;BME280;3137;51.550;7.060;2022-12-22T15:26:09;100279.09;;;8.68;80.50
6208;BME280;3137;51.550;7.060;2022-12-22T15:28:35;100268.13;;;8.60;81.60
6208;BME280;3137;51.550;7.060;2022-12-22T15:31:03;100271.63;;;8.60;81.64
6208;BME280;3137;51.550;7.060;2022-12-22T15:33:32;100257.63;;;8.57;81.64
6208;BME280;3137;51.550;7.060;2022-12-22T15:35:58;100270.66;;;8.61;81.42
6208;BME280;3137;51.550;7.060;2022-12-22T15:38:26;100267.47;;;8.56;81.38
6208;BME280;3137;51.550;7.060;2022-12-22T15:40:56;100264.28;;;8.51;81.90
6208;BME280;3137;51.550;7.060;2022-12-22T15:43:22;100278.03;;;8.45;81.91
6208;BME280;3137;51.550;7.060;2022-12-22T15:46:13;100267.47;;;8.56;82.03
6208;BME280;3137;51.550;7.060;2022-12-22T15:48:41;100267.78;;;8.51;81.89
6208;BME280;3137;51.550;7.060;2022-12-22T15:51:16;100257.34;;;8.48;82.31